Schawana, Washington
Current Conditions -  °F | °C
As of 6:11 AM on Wednesday 26 Nov 2014 (Local Time) from K1YT Reporting Station
Haze Haze  
Wind Chill: 37°   Ceiling: 200
Heat Index: 37°   Visibility: 1.8mi
Dew Point: 37°   Wind: 0mph
Humidity: 100%   Direction: NA
Pressure: 30.16"   Gusts: NA
Location:  46.8623°N, 119.858°W
Report Text: K1YT 261411Z AUTO 00000KT 1 7/8SM BR OVC002 03/03 A3016 RMK AO2 VIS 1/2V1 7/8
Loading
Personal Weather Stations






























Interactive Weather Map New forecast layout! Learn more

10-Day Weather Forecast

Advertisements
Track Severe Weather on mobile